sensor_id;sensor_type;location;lat;lon;timestamp;P1;durP1;ratioP1;P2;durP2;ratioP2
81176;SDS011;74095;48.270;14.200;2024-02-26T00:00:00;33.30;;;17.23;;
81176;SDS011;74095;48.270;14.200;2024-02-26T00:02:26;30.63;;;16.83;;
81176;SDS011;74095;48.270;14.200;2024-02-26T00:04:51;30.08;;;16.42;;
81176;SDS011;74095;48.270;14.200;2024-02-26T00:07:17;26.95;;;14.75;;
81176;SDS011;74095;48.270;14.200;2024-02-26T00:09:43;28.75;;;14.70;;
81176;SDS011;74095;48.270;14.200;2024-02-26T00:12:09;29.15;;;17.58;;
81176;SDS011;74095;48.270;14.200;2024-02-26T00:14:35;28.00;;;15.45;;
81176;SDS011;74095;48.270;14.200;2024-02-26T00:17:01;24.25;;;13.88;;
81176;SDS011;74095;48.270;14.200;2024-02-26T00:19:28;23.98;;;13.88;;
81176;SDS011;74095;48.270;14.200;2024-02-26T00:21:54;24.92;;;14.00;;
81176;SDS011;74095;48.270;14.200;2024-02-26T00:24:21;25.00;;;13.98;;
81176;SDS011;74095;48.270;14.200;2024-02-26T00:26:47;33.75;;;17.48;;
81176;SDS011;74095;48.270;14.200;2024-02-26T00:29:18;79.72;;;33.97;;
81176;SDS011;74095;48.270;14.200;2024-02-26T00:31:45;61.20;;;29.45;;
81176;SDS011;74095;48.270;14.200;2024-02-26T00:34:11;36.45;;;19.10;;
81176;SDS011;74095;48.270;14.200;2024-02-26T00:36:37;34.17;;;16.95;;
81176;SDS011;74095;48.270;14.200;2024-02-26T00:39:05;39.22;;;24.42;;
81176;SDS011;74095;48.270;14.200;2024-02-26T00:41:32;28.83;;;16.00;;
81176;SDS011;74095;48.270;14.200;2024-02-26T00:43:57;30.85;;;17.95;;
81176;SDS011;74095;48.270;14.200;2024-02-26T00:46:23;29.08;;;16.40;;
81176;SDS011;74095;48.270;14.200;2024-02-26T00:48:49;26.50;;;15.20;;
81176;SDS011;74095;48.270;14.200;2024-02-26T00:51:15;24.92;;;13.82;;
81176;SDS011;74095;48.270;14.200;2024-02-26T00:53:41;26.38;;;14.68;;
81176;SDS011;74095;48.270;14.200;2024-02-26T00:56:07;111.40;;;18.88;;
81176;SDS011;74095;48.270;14.200;2024-02-26T00:58:33;141.88;;;20.95;;
81176;SDS011;74095;48.270;14.200;2024-02-26T01:00:59;59.05;;;16.25;;
81176;SDS011;74095;48.270;14.200;2024-02-26T01:03:24;33.38;;;15.10;;
81176;SDS011;74095;48.270;14.200;2024-02-26T01:05:51;55.05;;;17.13;;
81176;SDS011;74095;48.270;14.200;2024-02-26T01:08:17;72.32;;;19.67;;
81176;SDS011;74095;48.270;14.200;2024-02-26T01:10:43;45.20;;;16.77;;
81176;SDS011;74095;48.270;14.200;2024-02-26T01:13:08;46.13;;;16.33;;
81176;SDS011;74095;48.270;14.200;2024-02-26T01:15:34;54.10;;;15.05;;
81176;SDS011;74095;48.270;14.200;2024-02-26T01:18:00;57.58;;;14.77;;
81176;SDS011;74095;48.270;14.200;2024-02-26T01:20:26;42.72;;;14.27;;
81176;SDS011;74095;48.270;14.200;2024-02-26T01:22:52;26.70;;;13.30;;
81176;SDS011;74095;48.270;14.200;2024-02-26T01:25:18;39.90;;;15.43;;
81176;SDS011;74095;48.270;14.200;2024-02-26T01:27:44;35.58;;;16.00;;
81176;SDS011;74095;48.270;14.200;2024-02-26T01:30:10;38.80;;;16.20;;
81176;SDS011;74095;48.270;14.200;2024-02-26T01:32:36;28.67;;;15.73;;
81176;SDS011;74095;48.270;14.200;2024-02-26T01:35:02;23.27;;;12.70;;
81176;SDS011;74095;48.270;14.200;2024-02-26T01:37:29;33.60;;;14.60;;
81176;SDS011;74095;48.270;14.200;2024-02-26T01:39:58;24.58;;;14.07;;
81176;SDS011;74095;48.270;14.200;2024-02-26T01:42:23;27.80;;;15.25;;
81176;SDS011;74095;48.270;14.200;2024-02-26T01:44:49;25.90;;;13.90;;
81176;SDS011;74095;48.270;14.200;2024-02-26T01:47:15;27.40;;;15.38;;
81176;SDS011;74095;48.270;14.200;2024-02-26T01:49:41;27.98;;;14.50;;
81176;SDS011;74095;48.270;14.200;2024-02-26T01:52:08;26.50;;;14.70;;
81176;SDS011;74095;48.270;14.200;2024-02-26T01:54:34;24.35;;;13.38;;
81176;SDS011;74095;48.270;14.200;2024-02-26T01:57:02;24.75;;;13.73;;
81176;SDS011;74095;48.270;14.200;2024-02-26T01:59:30;21.73;;;12.60;;
81176;SDS011;74095;48.270;14.200;2024-02-26T02:01:57;21.05;;;12.35;;
81176;SDS011;74095;48.270;14.200;2024-02-26T02:04:27;24.30;;;13.95;;
81176;SDS011;74095;48.270;14.200;2024-02-26T02:06:53;22.85;;;13.15;;
81176;SDS011;74095;48.270;14.200;2024-02-26T02:09:19;23.33;;;13.65;;
81176;SDS011;74095;48.270;14.200;2024-02-26T02:11:46;23.48;;;14.05;;
81176;SDS011;74095;48.270;14.200;2024-02-26T02:14:14;26.98;;;13.13;;
81176;SDS011;74095;48.270;14.200;2024-02-26T02:16:40;44.17;;;13.52;;
81176;SDS011;74095;48.270;14.200;2024-02-26T02:19:06;33.95;;;13.45;;
81176;SDS011;74095;48.270;14.200;2024-02-26T02:21:32;41.05;;;14.70;;
81176;SDS011;74095;48.270;14.200;2024-02-26T02:23:58;78.25;;;16.77;;
81176;SDS011;74095;48.270;14.200;2024-02-26T02:26:24;75.88;;;18.20;;
81176;SDS011;74095;48.270;14.200;2024-02-26T02:28:50;50.75;;;14.90;;
81176;SDS011;74095;48.270;14.200;2024-02-26T02:31:16;57.03;;;14.23;;
81176;SDS011;74095;48.270;14.200;2024-02-26T02:33:42;34.65;;;13.23;;
81176;SDS011;74095;48.270;14.200;2024-02-26T02:36:08;20.08;;;9.07;;
81176;SDS011;74095;48.270;14.200;2024-02-26T02:38:38;29.45;;;10.98;;
81176;SDS011;74095;48.270;14.200;2024-02-26T02:41:15;40.17;;;12.05;;
81176;SDS011;74095;48.270;14.200;2024-02-26T02:43:41;37.60;;;12.98;;
81176;SDS011;74095;48.270;14.200;2024-02-26T02:46:07;37.38;;;13.00;;
81176;SDS011;74095;48.270;14.200;2024-02-26T02:48:33;31.02;;;13.10;;
81176;SDS011;74095;48.270;14.200;2024-02-26T02:50:59;34.40;;;11.57;;
81176;SDS011;74095;48.270;14.200;2024-02-26T02:53:25;27.35;;;9.63;;
81176;SDS011;74095;48.270;14.200;2024-02-26T02:55:50;12.75;;;6.22;;
81176;SDS011;74095;48.270;14.200;2024-02-26T02:58:16;24.52;;;11.63;;
81176;SDS011;74095;48.270;14.200;2024-02-26T03:00:42;12.00;;;7.53;;
81176;SDS011;74095;48.270;14.200;2024-02-26T03:03:08;12.65;;;7.95;;
81176;SDS011;74095;48.270;14.200;2024-02-26T03:05:34;12.25;;;6.47;;
81176;SDS011;74095;48.270;14.200;2024-02-26T03:08:00;16.83;;;6.68;;
81176;SDS011;74095;48.270;14.200;2024-02-26T03:10:26;52.50;;;9.30;;
81176;SDS011;74095;48.270;14.200;2024-02-26T03:12:53;32.72;;;9.40;;
81176;SDS011;74095;48.270;14.200;2024-02-26T03:15:19;73.15;;;17.73;;
81176;SDS011;74095;48.270;14.200;2024-02-26T03:17:45;100.68;;;22.33;;
81176;SDS011;74095;48.270;14.200;2024-02-26T03:20:11;65.95;;;17.17;;
81176;SDS011;74095;48.270;14.200;2024-02-26T03:22:38;47.10;;;17.85;;
81176;SDS011;74095;48.270;14.200;2024-02-26T03:25:05;31.63;;;14.68;;
81176;SDS011;74095;48.270;14.200;2024-02-26T03:27:31;31.45;;;13.68;;
81176;SDS011;74095;48.270;14.200;2024-02-26T03:29:58;29.48;;;13.57;;
81176;SDS011;74095;48.270;14.200;2024-02-26T03:32:24;26.52;;;14.13;;
81176;SDS011;74095;48.270;14.200;2024-02-26T03:34:50;24.13;;;12.18;;
81176;SDS011;74095;48.270;14.200;2024-02-26T03:37:19;27.08;;;13.95;;
81176;SDS011;74095;48.270;14.200;2024-02-26T03:39:45;16.80;;;7.95;;
81176;SDS011;74095;48.270;14.200;2024-02-26T03:42:11;37.70;;;14.27;;
81176;SDS011;74095;48.270;14.200;2024-02-26T03:44:37;28.13;;;11.15;;
81176;SDS011;74095;48.270;14.200;2024-02-26T03:47:03;28.85;;;13.13;;
81176;SDS011;74095;48.270;14.200;2024-02-26T03:49:29;50.85;;;16.45;;
81176;SDS011;74095;48.270;14.200;2024-02-26T03:51:55;40.97;;;16.48;;
81176;SDS011;74095;48.270;14.200;2024-02-26T03:54:22;27.83;;;14.07;;
81176;SDS011;74095;48.270;14.200;2024-02-26T03:56:47;22.55;;;12.77;;
81176;SDS011;74095;48.270;14.200;2024-02-26T03:59:13;33.53;;;14.32;;
81176;SDS011;74095;48.270;14.200;2024-02-26T04:01:44;23.70;;;14.10;;
81176;SDS011;74095;48.270;14.200;2024-02-26T04:04:12;22.38;;;12.07;;
81176;SDS011;74095;48.270;14.200;2024-02-26T04:06:38;29.65;;;15.20;;
81176;SDS011;74095;48.270;14.200;2024-02-26T04:09:04;32.92;;;14.30;;
81176;SDS011;74095;48.270;14.200;2024-02-26T04:11:30;25.52;;;13.05;;
81176;SDS011;74095;48.270;14.200;2024-02-26T04:13:56;23.75;;;13.45;;
81176;SDS011;74095;48.270;14.200;2024-02-26T04:16:22;38.75;;;16.73;;
81176;SDS011;74095;48.270;14.200;2024-02-26T04:18:48;28.10;;;15.32;;
81176;SDS011;74095;48.270;14.200;2024-02-26T04:21:14;24.48;;;13.20;;
81176;SDS011;74095;48.270;14.200;2024-02-26T04:23:40;35.65;;;14.43;;
81176;SDS011;74095;48.270;14.200;2024-02-26T04:26:06;62.33;;;16.75;;
81176;SDS011;74095;48.270;14.200;2024-02-26T04:28:32;29.08;;;13.48;;
81176;SDS011;74095;48.270;14.200;2024-02-26T04:30:58;22.20;;;10.38;;
81176;SDS011;74095;48.270;14.200;2024-02-26T04:33:24;32.05;;;10.30;;
81176;SDS011;74095;48.270;14.200;2024-02-26T04:35:50;27.48;;;10.63;;
81176;SDS011;74095;48.270;14.200;2024-02-26T04:38:15;24.90;;;11.23;;
81176;SDS011;74095;48.270;14.200;2024-02-26T04:40:41;32.38;;;15.48;;
81176;SDS011;74095;48.270;14.200;2024-02-26T04:43:07;15.68;;;9.40;;
81176;SDS011;74095;48.270;14.200;2024-02-26T04:45:33;17.67;;;10.30;;
81176;SDS011;74095;48.270;14.200;2024-02-26T04:47:59;22.10;;;11.05;;
81176;SDS011;74095;48.270;14.200;2024-02-26T04:50:25;56.83;;;12.18;;
81176;SDS011;74095;48.270;14.200;2024-02-26T04:52:51;22.13;;;10.15;;
81176;SDS011;74095;48.270;14.200;2024-02-26T04:55:17;51.08;;;11.85;;
81176;SDS011;74095;48.270;14.200;2024-02-26T04:57:43;119.57;;;17.75;;
81176;SDS011;74095;48.270;14.200;2024-02-26T05:00:09;78.13;;;16.80;;
81176;SDS011;74095;48.270;14.200;2024-02-26T05:02:35;31.23;;;10.45;;
81176;SDS011;74095;48.270;14.200;2024-02-26T05:05:04;48.88;;;15.70;;
81176;SDS011;74095;48.270;14.200;2024-02-26T05:07:31;51.22;;;15.27;;
81176;SDS011;74095;48.270;14.200;2024-02-26T05:09:57;85.18;;;18.80;;
81176;SDS011;74095;48.270;14.200;2024-02-26T05:12:23;45.63;;;14.75;;
81176;SDS011;74095;48.270;14.200;2024-02-26T05:14:49;32.72;;;13.15;;
81176;SDS011;74095;48.270;14.200;2024-02-26T05:17:15;34.13;;;14.25;;
81176;SDS011;74095;48.270;14.200;2024-02-26T05:19:41;24.60;;;12.45;;
81176;SDS011;74095;48.270;14.200;2024-02-26T05:22:07;89.50;;;17.02;;
81176;SDS011;74095;48.270;14.200;2024-02-26T05:24:33;56.78;;;16.73;;
81176;SDS011;74095;48.270;14.200;2024-02-26T05:26:59;84.40;;;17.95;;
81176;SDS011;74095;48.270;14.200;2024-02-26T05:29:25;59.10;;;19.55;;
81176;SDS011;74095;48.270;14.200;2024-02-26T05:31:51;37.53;;;16.77;;
81176;SDS011;74095;48.270;14.200;2024-02-26T05:34:19;39.45;;;16.73;;
81176;SDS011;74095;48.270;14.200;2024-02-26T05:36:45;37.83;;;16.98;;
81176;SDS011;74095;48.270;14.200;2024-02-26T05:39:11;123.32;;;24.00;;
81176;SDS011;74095;48.270;14.200;2024-02-26T05:41:37;130.27;;;22.63;;
81176;SDS011;74095;48.270;14.200;2024-02-26T05:44:03;80.75;;;19.10;;
81176;SDS011;74095;48.270;14.200;2024-02-26T05:46:29;83.72;;;19.55;;
81176;SDS011;74095;48.270;14.200;2024-02-26T05:48:55;60.70;;;15.20;;
81176;SDS011;74095;48.270;14.200;2024-02-26T05:51:21;63.88;;;16.55;;
81176;SDS011;74095;48.270;14.200;2024-02-26T05:53:47;78.75;;;15.63;;
81176;SDS011;74095;48.270;14.200;2024-02-26T05:56:19;84.85;;;18.90;;
81176;SDS011;74095;48.270;14.200;2024-02-26T05:58:48;40.17;;;13.82;;
81176;SDS011;74095;48.270;14.200;2024-02-26T06:01:17;16.05;;;7.38;;
81176;SDS011;74095;48.270;14.200;2024-02-26T06:03:43;20.73;;;10.15;;
81176;SDS011;74095;48.270;14.200;2024-02-26T06:06:10;95.18;;;19.00;;
81176;SDS011;74095;48.270;14.200;2024-02-26T06:08:36;116.10;;;19.63;;
81176;SDS011;74095;48.270;14.200;2024-02-26T06:11:08;90.05;;;18.42;;
81176;SDS011;74095;48.270;14.200;2024-02-26T06:13:35;86.32;;;18.38;;
81176;SDS011;74095;48.270;14.200;2024-02-26T06:16:01;138.60;;;20.30;;
81176;SDS011;74095;48.270;14.200;2024-02-26T06:18:27;122.20;;;18.85;;
81176;SDS011;74095;48.270;14.200;2024-02-26T06:20:53;190.43;;;26.35;;
81176;SDS011;74095;48.270;14.200;2024-02-26T06:23:19;83.57;;;17.77;;
81176;SDS011;74095;48.270;14.200;2024-02-26T06:25:45;55.58;;;13.75;;
81176;SDS011;74095;48.270;14.200;2024-02-26T06:28:13;33.70;;;10.88;;
81176;SDS011;74095;48.270;14.200;2024-02-26T06:30:39;70.57;;;16.73;;
81176;SDS011;74095;48.270;14.200;2024-02-26T06:33:05;85.85;;;16.75;;
81176;SDS011;74095;48.270;14.200;2024-02-26T06:35:31;112.20;;;18.95;;
81176;SDS011;74095;48.270;14.200;2024-02-26T06:37:57;152.82;;;23.00;;
81176;SDS011;74095;48.270;14.200;2024-02-26T06:40:23;113.97;;;20.50;;
81176;SDS011;74095;48.270;14.200;2024-02-26T06:42:49;119.40;;;19.23;;
81176;SDS011;74095;48.270;14.200;2024-02-26T06:45:15;98.32;;;17.70;;
81176;SDS011;74095;48.270;14.200;2024-02-26T06:47:41;88.28;;;16.88;;
81176;SDS011;74095;48.270;14.200;2024-02-26T06:50:08;84.40;;;17.50;;
81176;SDS011;74095;48.270;14.200;2024-02-26T06:52:34;118.53;;;21.00;;
81176;SDS011;74095;48.270;14.200;2024-02-26T06:55:00;147.98;;;21.10;;
81176;SDS011;74095;48.270;14.200;2024-02-26T06:57:26;111.75;;;20.20;;
81176;SDS011;74095;48.270;14.200;2024-02-26T06:59:52;58.65;;;13.32;;
81176;SDS011;74095;48.270;14.200;2024-02-26T07:02:18;35.13;;;11.50;;
81176;SDS011;74095;48.270;14.200;2024-02-26T07:04:44;74.68;;;15.50;;
81176;SDS011;74095;48.270;14.200;2024-02-26T07:07:10;81.80;;;16.45;;
81176;SDS011;74095;48.270;14.200;2024-02-26T07:09:36;82.85;;;16.10;;
81176;SDS011;74095;48.270;14.200;2024-02-26T07:12:02;80.47;;;15.93;;
81176;SDS011;74095;48.270;14.200;2024-02-26T07:14:28;33.75;;;10.13;;
81176;SDS011;74095;48.270;14.200;2024-02-26T07:16:54;39.90;;;11.52;;
81176;SDS011;74095;48.270;14.200;2024-02-26T07:19:20;66.40;;;15.23;;
81176;SDS011;74095;48.270;14.200;2024-02-26T07:21:46;166.88;;;19.98;;
81176;SDS011;74095;48.270;14.200;2024-02-26T07:24:12;236.07;;;23.50;;
81176;SDS011;74095;48.270;14.200;2024-02-26T07:26:37;117.43;;;18.52;;
81176;SDS011;74095;48.270;14.200;2024-02-26T07:29:03;146.45;;;18.63;;
81176;SDS011;74095;48.270;14.200;2024-02-26T07:31:30;64.50;;;12.50;;
81176;SDS011;74095;48.270;14.200;2024-02-26T07:33:56;26.75;;;8.18;;
81176;SDS011;74095;48.270;14.200;2024-02-26T07:36:21;66.50;;;12.88;;
81176;SDS011;74095;48.270;14.200;2024-02-26T07:38:47;61.05;;;12.90;;
81176;SDS011;74095;48.270;14.200;2024-02-26T07:41:13;46.42;;;11.55;;
81176;SDS011;74095;48.270;14.200;2024-02-26T07:43:39;115.55;;;14.98;;
81176;SDS011;74095;48.270;14.200;2024-02-26T07:46:06;35.45;;;12.65;;
81176;SDS011;74095;48.270;14.200;2024-02-26T07:48:32;23.25;;;7.78;;
81176;SDS011;74095;48.270;14.200;2024-02-26T07:50:59;10.88;;;6.32;;
81176;SDS011;74095;48.270;14.200;2024-02-26T07:53:25;47.78;;;11.07;;
81176;SDS011;74095;48.270;14.200;2024-02-26T07:55:51;40.13;;;12.20;;
81176;SDS011;74095;48.270;14.200;2024-02-26T07:58:17;37.45;;;10.20;;
81176;SDS011;74095;48.270;14.200;2024-02-26T08:00:43;155.90;;;18.00;;
81176;SDS011;74095;48.270;14.200;2024-02-26T08:03:11;118.93;;;16.85;;
81176;SDS011;74095;48.270;14.200;2024-02-26T08:05:38;214.85;;;19.52;;
81176;SDS011;74095;48.270;14.200;2024-02-26T08:08:06;216.75;;;22.52;;
81176;SDS011;74095;48.270;14.200;2024-02-26T08:10:32;157.27;;;19.38;;
81176;SDS011;74095;48.270;14.200;2024-02-26T08:12:58;161.38;;;18.27;;
81176;SDS011;74095;48.270;14.200;2024-02-26T08:15:33;129.43;;;18.45;;
81176;SDS011;74095;48.270;14.200;2024-02-26T08:18:00;108.35;;;16.95;;
81176;SDS011;74095;48.270;14.200;2024-02-26T08:20:29;73.93;;;13.18;;
81176;SDS011;74095;48.270;14.200;2024-02-26T08:22:56;62.17;;;13.05;;
81176;SDS011;74095;48.270;14.200;2024-02-26T08:25:22;48.53;;;10.88;;
81176;SDS011;74095;48.270;14.200;2024-02-26T08:27:49;60.50;;;15.68;;
81176;SDS011;74095;48.270;14.200;2024-02-26T08:30:15;28.85;;;11.30;;
81176;SDS011;74095;48.270;14.200;2024-02-26T08:32:45;18.13;;;9.18;;
81176;SDS011;74095;48.270;14.200;2024-02-26T08:35:13;17.40;;;12.30;;
81176;SDS011;74095;48.270;14.200;2024-02-26T08:37:39;19.50;;;11.40;;
81176;SDS011;74095;48.270;14.200;2024-02-26T08:40:05;13.07;;;9.23;;
81176;SDS011;74095;48.270;14.200;2024-02-26T08:42:32;13.07;;;8.65;;
81176;SDS011;74095;48.270;14.200;2024-02-26T08:44:58;11.45;;;8.27;;
81176;SDS011;74095;48.270;14.200;2024-02-26T08:47:27;12.80;;;9.18;;
81176;SDS011;74095;48.270;14.200;2024-02-26T08:49:53;17.20;;;9.80;;
81176;SDS011;74095;48.270;14.200;2024-02-26T08:52:19;14.40;;;10.02;;
81176;SDS011;74095;48.270;14.200;2024-02-26T08:54:45;12.20;;;8.63;;
81176;SDS011;74095;48.270;14.200;2024-02-26T08:57:11;12.98;;;8.07;;
81176;SDS011;74095;48.270;14.200;2024-02-26T08:59:37;25.58;;;9.20;;
81176;SDS011;74095;48.270;14.200;2024-02-26T09:02:03;17.00;;;8.73;;
81176;SDS011;74095;48.270;14.200;2024-02-26T09:04:29;13.48;;;8.38;;
81176;SDS011;74095;48.270;14.200;2024-02-26T09:06:55;17.63;;;9.45;;
81176;SDS011;74095;48.270;14.200;2024-02-26T09:09:21;13.10;;;9.00;;
81176;SDS011;74095;48.270;14.200;2024-02-26T09:11:48;15.80;;;8.68;;
81176;SDS011;74095;48.270;14.200;2024-02-26T09:14:17;14.48;;;9.50;;
81176;SDS011;74095;48.270;14.200;2024-02-26T09:16:43;13.23;;;9.15;;
81176;SDS011;74095;48.270;14.200;2024-02-26T09:19:09;14.07;;;8.82;;
81176;SDS011;74095;48.270;14.200;2024-02-26T09:21:35;14.77;;;9.93;;
81176;SDS011;74095;48.270;14.200;2024-02-26T09:24:01;14.27;;;10.13;;
81176;SDS011;74095;48.270;14.200;2024-02-26T09:26:27;15.90;;;11.05;;
81176;SDS011;74095;48.270;14.200;2024-02-26T09:28:52;15.65;;;10.55;;
81176;SDS011;74095;48.270;14.200;2024-02-26T09:31:18;14.10;;;9.68;;
81176;SDS011;74095;48.270;14.200;2024-02-26T09:33:44;18.95;;;11.35;;
81176;SDS011;74095;48.270;14.200;2024-02-26T09:36:11;17.88;;;11.07;;
81176;SDS011;74095;48.270;14.200;2024-02-26T09:38:37;14.98;;;10.77;;
81176;SDS011;74095;48.270;14.200;2024-02-26T09:41:06;16.10;;;11.05;;
81176;SDS011;74095;48.270;14.200;2024-02-26T09:43:37;18.45;;;10.82;;
81176;SDS011;74095;48.270;14.200;2024-02-26T09:46:07;16.65;;;10.30;;
81176;SDS011;74095;48.270;14.200;2024-02-26T09:48:34;18.27;;;12.25;;
81176;SDS011;74095;48.270;14.200;2024-02-26T09:51:01;16.02;;;10.80;;
81176;SDS011;74095;48.270;14.200;2024-02-26T09:53:28;14.55;;;9.50;;
81176;SDS011;74095;48.270;14.200;2024-02-26T09:55:57;14.57;;;8.20;;
81176;SDS011;74095;48.270;14.200;2024-02-26T09:58:27;15.95;;;9.82;;
81176;SDS011;74095;48.270;14.200;2024-02-26T10:00:55;16.98;;;10.45;;
81176;SDS011;74095;48.270;14.200;2024-02-26T10:03:41;15.20;;;10.52;;
81176;SDS011;74095;48.270;14.200;2024-02-26T10:06:08;14.57;;;9.45;;
81176;SDS011;74095;48.270;14.200;2024-02-26T10:08:35;13.85;;;10.23;;
81176;SDS011;74095;48.270;14.200;2024-02-26T10:11:06;14.40;;;9.88;;
81176;SDS011;74095;48.270;14.200;2024-02-26T10:13:36;17.58;;;10.43;;
81176;SDS011;74095;48.270;14.200;2024-02-26T10:16:03;16.13;;;10.82;;
81176;SDS011;74095;48.270;14.200;2024-02-26T10:18:44;16.50;;;11.85;;
81176;SDS011;74095;48.270;14.200;2024-02-26T10:21:15;19.00;;;12.85;;
81176;SDS011;74095;48.270;14.200;2024-02-26T10:23:46;20.38;;;10.30;;
81176;SDS011;74095;48.270;14.200;2024-02-26T10:26:18;16.08;;;10.35;;
81176;SDS011;74095;48.270;14.200;2024-02-26T10:28:45;18.38;;;10.38;;
81176;SDS011;74095;48.270;14.200;2024-02-26T10:31:11;15.73;;;10.63;;
81176;SDS011;74095;48.270;14.200;2024-02-26T10:33:40;13.77;;;9.55;;
81176;SDS011;74095;48.270;14.200;2024-02-26T10:36:07;16.33;;;11.80;;
81176;SDS011;74095;48.270;14.200;2024-02-26T10:38:36;15.38;;;10.80;;
81176;SDS011;74095;48.270;14.200;2024-02-26T10:41:03;19.73;;;11.05;;
81176;SDS011;74095;48.270;14.200;2024-02-26T10:43:32;19.02;;;11.55;;
81176;SDS011;74095;48.270;14.200;2024-02-26T10:45:58;17.77;;;10.05;;
81176;SDS011;74095;48.270;14.200;2024-02-26T10:48:24;17.88;;;10.88;;
81176;SDS011;74095;48.270;14.200;2024-02-26T10:50:50;18.50;;;12.70;;
81176;SDS011;74095;48.270;14.200;2024-02-26T10:53:17;22.70;;;12.05;;
81176;SDS011;74095;48.270;14.200;2024-02-26T10:55:46;20.60;;;12.20;;
81176;SDS011;74095;48.270;14.200;2024-02-26T10:58:14;22.92;;;14.40;;
81176;SDS011;74095;48.270;14.200;2024-02-26T11:00:42;20.02;;;13.73;;
81176;SDS011;74095;48.270;14.200;2024-02-26T11:03:09;22.77;;;14.40;;
81176;SDS011;74095;48.270;14.200;2024-02-26T11:05:36;21.77;;;13.95;;
81176;SDS011;74095;48.270;14.200;2024-02-26T11:08:03;25.38;;;15.32;;
81176;SDS011;74095;48.270;14.200;2024-02-26T11:10:30;26.83;;;15.65;;
81176;SDS011;74095;48.270;14.200;2024-02-26T11:12:57;24.48;;;14.35;;
81176;SDS011;74095;48.270;14.200;2024-02-26T11:15:25;26.98;;;14.65;;
81176;SDS011;74095;48.270;14.200;2024-02-26T11:17:52;26.58;;;14.32;;
81176;SDS011;74095;48.270;14.200;2024-02-26T11:20:19;30.77;;;14.63;;
81176;SDS011;74095;48.270;14.200;2024-02-26T11:22:45;24.13;;;15.77;;
81176;SDS011;74095;48.270;14.200;2024-02-26T11:25:11;27.60;;;15.98;;
81176;SDS011;74095;48.270;14.200;2024-02-26T11:27:40;29.92;;;17.17;;
81176;SDS011;74095;48.270;14.200;2024-02-26T11:30:14;34.53;;;15.93;;
81176;SDS011;74095;48.270;14.200;2024-02-26T11:32:45;28.48;;;14.57;;
81176;SDS011;74095;48.270;14.200;2024-02-26T11:35:12;27.10;;;14.63;;
81176;SDS011;74095;48.270;14.200;2024-02-26T11:37:41;28.00;;;15.82;;
81176;SDS011;74095;48.270;14.200;2024-02-26T11:40:11;28.48;;;14.50;;
81176;SDS011;74095;48.270;14.200;2024-02-26T11:42:43;26.02;;;15.80;;
81176;SDS011;74095;48.270;14.200;2024-02-26T11:48:12;19.85;;;12.00;;
81176;SDS011;74095;48.270;14.200;2024-02-26T11:50:43;26.33;;;14.10;;
81176;SDS011;74095;48.270;14.200;2024-02-26T11:53:29;18.45;;;10.27;;
81176;SDS011;74095;48.270;14.200;2024-02-26T11:58:48;19.00;;;11.90;;
81176;SDS011;74095;48.270;14.200;2024-02-26T12:04:14;14.57;;;9.18;;
81176;SDS011;74095;48.270;14.200;2024-02-26T12:06:44;14.07;;;8.35;;
81176;SDS011;74095;48.270;14.200;2024-02-26T12:09:11;16.73;;;8.00;;
81176;SDS011;74095;48.270;14.200;2024-02-26T12:11:39;10.65;;;7.38;;
81176;SDS011;74095;48.270;14.200;2024-02-26T12:14:05;11.98;;;6.38;;
81176;SDS011;74095;48.270;14.200;2024-02-26T12:16:39;16.35;;;7.32;;
81176;SDS011;74095;48.270;14.200;2024-02-26T12:19:08;11.45;;;7.55;;
81176;SDS011;74095;48.270;14.200;2024-02-26T12:21:35;10.93;;;7.30;;
81176;SDS011;74095;48.270;14.200;2024-02-26T12:24:12;12.73;;;8.27;;
81176;SDS011;74095;48.270;14.200;2024-02-26T12:26:39;12.77;;;7.95;;
81176;SDS011;74095;48.270;14.200;2024-02-26T12:29:06;11.00;;;7.13;;
81176;SDS011;74095;48.270;14.200;2024-02-26T12:31:33;12.05;;;7.75;;
81176;SDS011;74095;48.270;14.200;2024-02-26T12:33:59;12.07;;;5.65;;
81176;SDS011;74095;48.270;14.200;2024-02-26T12:36:26;11.35;;;7.72;;
81176;SDS011;74095;48.270;14.200;2024-02-26T12:38:52;16.70;;;8.02;;
81176;SDS011;74095;48.270;14.200;2024-02-26T12:41:18;13.45;;;9.52;;
81176;SDS011;74095;48.270;14.200;2024-02-26T12:43:44;15.52;;;9.45;;
81176;SDS011;74095;48.270;14.200;2024-02-26T12:46:10;14.48;;;9.82;;
81176;SDS011;74095;48.270;14.200;2024-02-26T12:48:36;15.55;;;9.07;;
81176;SDS011;74095;48.270;14.200;2024-02-26T12:51:03;13.68;;;7.85;;
81176;SDS011;74095;48.270;14.200;2024-02-26T12:53:30;12.70;;;7.63;;
81176;SDS011;74095;48.270;14.200;2024-02-26T12:55:56;10.65;;;7.18;;
81176;SDS011;74095;48.270;14.200;2024-02-26T12:58:22;9.00;;;6.53;;
81176;SDS011;74095;48.270;14.200;2024-02-26T13:03:20;9.45;;;4.70;;
81176;SDS011;74095;48.270;14.200;2024-02-26T13:05:48;9.13;;;5.43;;
81176;SDS011;74095;48.270;14.200;2024-02-26T13:08:21;9.57;;;5.60;;
81176;SDS011;74095;48.270;14.200;2024-02-26T13:10:48;12.93;;;7.20;;
81176;SDS011;74095;48.270;14.200;2024-02-26T13:13:16;11.18;;;6.22;;
81176;SDS011;74095;48.270;14.200;2024-02-26T13:15:46;22.10;;;7.88;;
81176;SDS011;74095;48.270;14.200;2024-02-26T13:18:14;9.00;;;6.00;;
81176;SDS011;74095;48.270;14.200;2024-02-26T13:20:40;9.02;;;5.38;;
81176;SDS011;74095;48.270;14.200;2024-02-26T13:23:08;11.20;;;5.75;;
81176;SDS011;74095;48.270;14.200;2024-02-26T13:25:37;12.10;;;6.38;;
81176;SDS011;74095;48.270;14.200;2024-02-26T13:33:10;5.53;;;3.85;;
81176;SDS011;74095;48.270;14.200;2024-02-26T13:35:37;6.72;;;4.70;;
81176;SDS011;74095;48.270;14.200;2024-02-26T13:38:04;8.93;;;5.10;;
81176;SDS011;74095;48.270;14.200;2024-02-26T13:40:34;6.43;;;3.95;;
81176;SDS011;74095;48.270;14.200;2024-02-26T13:43:00;5.40;;;3.92;;
81176;SDS011;74095;48.270;14.200;2024-02-26T13:45:26;5.68;;;4.05;;
81176;SDS011;74095;48.270;14.200;2024-02-26T13:47:53;6.60;;;3.30;;
81176;SDS011;74095;48.270;14.200;2024-02-26T13:50:18;7.07;;;2.38;;
81176;SDS011;74095;48.270;14.200;2024-02-26T13:52:47;4.35;;;3.58;;
81176;SDS011;74095;48.270;14.200;2024-02-26T13:55:18;5.53;;;2.97;;
81176;SDS011;74095;48.270;14.200;2024-02-26T13:57:45;6.93;;;4.10;;
81176;SDS011;74095;48.270;14.200;2024-02-26T14:00:11;6.30;;;3.85;;
81176;SDS011;74095;48.270;14.200;2024-02-26T14:02:37;7.38;;;4.18;;
81176;SDS011;74095;48.270;14.200;2024-02-26T14:05:03;6.18;;;4.60;;
81176;SDS011;74095;48.270;14.200;2024-02-26T14:07:30;6.03;;;3.78;;
81176;SDS011;74095;48.270;14.200;2024-02-26T14:09:58;5.50;;;4.03;;
81176;SDS011;74095;48.270;14.200;2024-02-26T14:12:24;6.20;;;4.10;;
81176;SDS011;74095;48.270;14.200;2024-02-26T14:14:50;5.22;;;4.00;;
81176;SDS011;74095;48.270;14.200;2024-02-26T14:17:18;6.70;;;4.38;;
81176;SDS011;74095;48.270;14.200;2024-02-26T14:19:44;7.25;;;4.50;;
81176;SDS011;74095;48.270;14.200;2024-02-26T14:22:11;6.82;;;4.13;;
81176;SDS011;74095;48.270;14.200;2024-02-26T14:24:37;6.60;;;3.90;;
81176;SDS011;74095;48.270;14.200;2024-02-26T14:27:03;7.40;;;4.63;;